Brownsville South Padre Island International Airport Brownsville US
ICAO: KBRO
IATA: BRO
Category: Medium
Scheduled Services: Yes

Elevation: 22 ft
TransAlt. 18000 ft.

Airport Communications:
VALLEY APP/DEP:119.5
ATIS:128.55
CTAF:118.9
GND:121.9
SAN ANGELO RDO:122.3
TWR:118.9
UNICOM:122.95

KBRO Zoom In..

If you have problems with the map follow the link
https://www.worldairports.se/pages/airport.php?
ICAO=KBRO

Runways:

(A) RW 13L length 3000 ft width 75 ft
---- / hdg 128

(B) RW 13R length 7399 ft width 150 ft
ILS 110.30 / hdg 128

(C) RW 17 length 6000 ft width 150 ft
---- / hdg 175

(D) RW 31L length 7399 ft width 150 ft
---- / hdg 308

(E) RW 31R length 3000 ft width 75 ft
---- / hdg 308

(F) RW 35 length 6000 ft width 150 ft
---- / hdg 355

Location; KBRO
Day. 06 / Time. 02.53 Zulu
* Altimeter: 30.00
* Temperature: 20° c. 68°f.
* Wind from: 160° Speed 06 kn.
Dewpoint: 19° c.
Visibility: 3/4 Statute Miles.
Conditions: Mist.

KBRO 060253Z 16006KT 3/4SM BR VV002 20/19 A3000 RMK AO2 SLP156 T02000194 53003


Wind From 160°
Speed 06 kn.

 
 
jpsmedia worldairports.se 2019   terms of use